sensor_id;sensor_type;location;lat;lon;timestamp;P1;durP1;ratioP1;P2;durP2;ratioP2
51485;SDS011;37565;51.352;6.412;2022-08-19T00:01:40;5.97;;;3.72;;
51485;SDS011;37565;51.352;6.412;2022-08-19T00:04:19;4.00;;;3.70;;
51485;SDS011;37565;51.352;6.412;2022-08-19T00:06:49;4.30;;;3.97;;
51485;SDS011;37565;51.352;6.412;2022-08-19T00:09:18;4.10;;;3.80;;
51485;SDS011;37565;51.352;6.412;2022-08-19T00:11:49;4.40;;;4.00;;
51485;SDS011;37565;51.352;6.412;2022-08-19T00:14:17;3.90;;;3.60;;
51485;SDS011;37565;51.352;6.412;2022-08-19T00:16:48;4.00;;;3.70;;
51485;SDS011;37565;51.352;6.412;2022-08-19T00:19:17;5.18;;;3.78;;
51485;SDS011;37565;51.352;6.412;2022-08-19T00:21:45;4.40;;;4.00;;
51485;SDS011;37565;51.352;6.412;2022-08-19T00:24:14;3.88;;;3.58;;
51485;SDS011;37565;51.352;6.412;2022-08-19T00:26:42;4.25;;;3.33;;
51485;SDS011;37565;51.352;6.412;2022-08-19T00:29:12;4.50;;;4.10;;
51485;SDS011;37565;51.352;6.412;2022-08-19T00:31:42;4.00;;;3.70;;
51485;SDS011;37565;51.352;6.412;2022-08-19T00:34:12;5.10;;;3.92;;
51485;SDS011;37565;51.352;6.412;2022-08-19T00:36:42;3.95;;;3.65;;
51485;SDS011;37565;51.352;6.412;2022-08-19T00:39:10;5.05;;;3.22;;
51485;SDS011;37565;51.352;6.412;2022-08-19T00:41:39;3.97;;;3.67;;
51485;SDS011;37565;51.352;6.412;2022-08-19T00:44:09;4.10;;;3.72;;
51485;SDS011;37565;51.352;6.412;2022-08-19T00:46:41;4.07;;;3.78;;
51485;SDS011;37565;51.352;6.412;2022-08-19T00:49:23;3.78;;;3.47;;
51485;SDS011;37565;51.352;6.412;2022-08-19T00:51:57;4.00;;;3.42;;
51485;SDS011;37565;51.352;6.412;2022-08-19T00:54:28;3.53;;;3.28;;
51485;SDS011;37565;51.352;6.412;2022-08-19T00:56:59;3.90;;;3.60;;
51485;SDS011;37565;51.352;6.412;2022-08-19T00:59:29;3.92;;;3.58;;
51485;SDS011;37565;51.352;6.412;2022-08-19T01:02:17;4.15;;;3.85;;
51485;SDS011;37565;51.352;6.412;2022-08-19T01:04:47;3.97;;;3.67;;
51485;SDS011;37565;51.352;6.412;2022-08-19T01:07:15;4.30;;;3.90;;
51485;SDS011;37565;51.352;6.412;2022-08-19T01:09:45;4.70;;;3.25;;
51485;SDS011;37565;51.352;6.412;2022-08-19T01:12:13;3.95;;;3.65;;
51485;SDS011;37565;51.352;6.412;2022-08-19T01:14:42;3.70;;;3.40;;
51485;SDS011;37565;51.352;6.412;2022-08-19T01:17:11;4.18;;;3.88;;
51485;SDS011;37565;51.352;6.412;2022-08-19T01:19:40;3.28;;;3.08;;
51485;SDS011;37565;51.352;6.412;2022-08-19T01:22:12;4.45;;;4.05;;
51485;SDS011;37565;51.352;6.412;2022-08-19T01:24:54;5.15;;;3.72;;
51485;SDS011;37565;51.352;6.412;2022-08-19T01:27:22;3.80;;;3.50;;
51485;SDS011;37565;51.352;6.412;2022-08-19T01:29:50;4.28;;;3.88;;
51485;SDS011;37565;51.352;6.412;2022-08-19T01:32:18;3.38;;;3.17;;
51485;SDS011;37565;51.352;6.412;2022-08-19T01:34:59;3.80;;;3.47;;
51485;SDS011;37565;51.352;6.412;2022-08-19T01:37:29;3.80;;;3.47;;
51485;SDS011;37565;51.352;6.412;2022-08-19T01:39:59;3.90;;;3.58;;
51485;SDS011;37565;51.352;6.412;2022-08-19T01:45:01;4.20;;;3.10;;
51485;SDS011;37565;51.352;6.412;2022-08-19T01:47:29;3.90;;;3.50;;
51485;SDS011;37565;51.352;6.412;2022-08-19T01:49:57;6.38;;;3.60;;
51485;SDS011;37565;51.352;6.412;2022-08-19T01:52:26;4.38;;;3.38;;
51485;SDS011;37565;51.352;6.412;2022-08-19T01:54:54;4.00;;;3.70;;
51485;SDS011;37565;51.352;6.412;2022-08-19T01:57:23;3.35;;;3.15;;
51485;SDS011;37565;51.352;6.412;2022-08-19T01:59:52;3.55;;;3.25;;
51485;SDS011;37565;51.352;6.412;2022-08-19T02:02:20;3.55;;;3.28;;
51485;SDS011;37565;51.352;6.412;2022-08-19T02:04:48;3.78;;;3.47;;
51485;SDS011;37565;51.352;6.412;2022-08-19T02:07:18;3.58;;;3.28;;
51485;SDS011;37565;51.352;6.412;2022-08-19T02:09:47;3.35;;;3.05;;
51485;SDS011;37565;51.352;6.412;2022-08-19T02:12:15;4.03;;;3.60;;
51485;SDS011;37565;51.352;6.412;2022-08-19T02:14:45;3.63;;;3.33;;
51485;SDS011;37565;51.352;6.412;2022-08-19T02:17:13;3.80;;;3.50;;
51485;SDS011;37565;51.352;6.412;2022-08-19T02:19:41;4.55;;;3.42;;
51485;SDS011;37565;51.352;6.412;2022-08-19T02:22:09;3.35;;;3.15;;
51485;SDS011;37565;51.352;6.412;2022-08-19T02:24:37;3.45;;;3.15;;
51485;SDS011;37565;51.352;6.412;2022-08-19T02:27:05;3.55;;;3.30;;
51485;SDS011;37565;51.352;6.412;2022-08-19T02:29:34;3.25;;;2.95;;
51485;SDS011;37565;51.352;6.412;2022-08-19T02:32:03;3.60;;;3.30;;
51485;SDS011;37565;51.352;6.412;2022-08-19T02:34:31;3.53;;;3.25;;
51485;SDS011;37565;51.352;6.412;2022-08-19T02:37:00;3.47;;;3.25;;
51485;SDS011;37565;51.352;6.412;2022-08-19T02:39:29;3.35;;;3.15;;
51485;SDS011;37565;51.352;6.412;2022-08-19T02:41:56;3.78;;;3.47;;
51485;SDS011;37565;51.352;6.412;2022-08-19T02:44:25;3.45;;;3.15;;
51485;SDS011;37565;51.352;6.412;2022-08-19T02:46:57;4.00;;;3.70;;
51485;SDS011;37565;51.352;6.412;2022-08-19T02:49:26;3.95;;;3.55;;
51485;SDS011;37565;51.352;6.412;2022-08-19T02:52:00;3.65;;;3.35;;
51485;SDS011;37565;51.352;6.412;2022-08-19T02:54:28;3.70;;;3.40;;
51485;SDS011;37565;51.352;6.412;2022-08-19T02:56:56;3.63;;;3.33;;
51485;SDS011;37565;51.352;6.412;2022-08-19T02:59:24;3.40;;;3.13;;
51485;SDS011;37565;51.352;6.412;2022-08-19T03:01:52;3.60;;;3.30;;
51485;SDS011;37565;51.352;6.412;2022-08-19T03:04:20;3.33;;;3.10;;
51485;SDS011;37565;51.352;6.412;2022-08-19T03:06:51;4.05;;;3.70;;
51485;SDS011;37565;51.352;6.412;2022-08-19T03:09:19;3.28;;;2.97;;
51485;SDS011;37565;51.352;6.412;2022-08-19T03:11:47;3.80;;;3.50;;
51485;SDS011;37565;51.352;6.412;2022-08-19T03:14:18;3.90;;;3.60;;
51485;SDS011;37565;51.352;6.412;2022-08-19T03:16:47;3.72;;;3.40;;
51485;SDS011;37565;51.352;6.412;2022-08-19T03:19:17;3.45;;;3.25;;
51485;SDS011;37565;51.352;6.412;2022-08-19T03:21:47;4.22;;;3.85;;
51485;SDS011;37565;51.352;6.412;2022-08-19T03:24:16;3.55;;;3.25;;
51485;SDS011;37565;51.352;6.412;2022-08-19T03:26:46;3.80;;;3.50;;
51485;SDS011;37565;51.352;6.412;2022-08-19T03:29:16;3.78;;;3.47;;
51485;SDS011;37565;51.352;6.412;2022-08-19T03:31:55;3.45;;;3.20;;
51485;SDS011;37565;51.352;6.412;2022-08-19T03:34:25;3.60;;;3.40;;
51485;SDS011;37565;51.352;6.412;2022-08-19T03:36:55;3.30;;;3.10;;
51485;SDS011;37565;51.352;6.412;2022-08-19T03:39:25;3.65;;;3.35;;
51485;SDS011;37565;51.352;6.412;2022-08-19T03:41:54;4.28;;;3.60;;
51485;SDS011;37565;51.352;6.412;2022-08-19T03:44:46;3.75;;;3.45;;
51485;SDS011;37565;51.352;6.412;2022-08-19T03:47:14;4.50;;;4.10;;
51485;SDS011;37565;51.352;6.412;2022-08-19T03:49:43;4.45;;;3.53;;
51485;SDS011;37565;51.352;6.412;2022-08-19T03:52:11;3.33;;;3.13;;
51485;SDS011;37565;51.352;6.412;2022-08-19T03:54:41;3.92;;;3.63;;
51485;SDS011;37565;51.352;6.412;2022-08-19T03:57:09;3.75;;;3.45;;
51485;SDS011;37565;51.352;6.412;2022-08-19T03:59:38;4.18;;;3.88;;
51485;SDS011;37565;51.352;6.412;2022-08-19T04:02:07;4.00;;;3.60;;
51485;SDS011;37565;51.352;6.412;2022-08-19T04:04:37;4.05;;;3.75;;
51485;SDS011;37565;51.352;6.412;2022-08-19T04:07:06;4.10;;;3.70;;
51485;SDS011;37565;51.352;6.412;2022-08-19T04:09:35;3.95;;;3.65;;
51485;SDS011;37565;51.352;6.412;2022-08-19T04:12:05;4.05;;;3.75;;
51485;SDS011;37565;51.352;6.412;2022-08-19T04:14:35;3.95;;;3.65;;
51485;SDS011;37565;51.352;6.412;2022-08-19T04:17:03;3.72;;;3.42;;
51485;SDS011;37565;51.352;6.412;2022-08-19T04:19:32;4.10;;;3.80;;
51485;SDS011;37565;51.352;6.412;2022-08-19T04:22:01;3.88;;;3.58;;
51485;SDS011;37565;51.352;6.412;2022-08-19T04:24:30;3.90;;;3.60;;
51485;SDS011;37565;51.352;6.412;2022-08-19T04:26:59;3.92;;;3.63;;
51485;SDS011;37565;51.352;6.412;2022-08-19T04:29:29;4.43;;;3.88;;
51485;SDS011;37565;51.352;6.412;2022-08-19T04:31:58;3.83;;;3.40;;
51485;SDS011;37565;51.352;6.412;2022-08-19T04:34:34;3.85;;;3.55;;
51485;SDS011;37565;51.352;6.412;2022-08-19T04:37:23;3.95;;;3.65;;
51485;SDS011;37565;51.352;6.412;2022-08-19T04:40:00;4.82;;;4.03;;
51485;SDS011;37565;51.352;6.412;2022-08-19T04:42:45;4.30;;;3.90;;
51485;SDS011;37565;51.352;6.412;2022-08-19T04:45:15;3.80;;;3.50;;
51485;SDS011;37565;51.352;6.412;2022-08-19T04:47:43;4.13;;;3.83;;
51485;SDS011;37565;51.352;6.412;2022-08-19T04:50:24;4.10;;;3.80;;
51485;SDS011;37565;51.352;6.412;2022-08-19T04:52:53;4.25;;;3.85;;
51485;SDS011;37565;51.352;6.412;2022-08-19T04:55:22;3.78;;;3.47;;
51485;SDS011;37565;51.352;6.412;2022-08-19T04:57:51;4.15;;;3.75;;
51485;SDS011;37565;51.352;6.412;2022-08-19T05:00:21;4.15;;;3.75;;
51485;SDS011;37565;51.352;6.412;2022-08-19T05:02:49;4.07;;;3.78;;
51485;SDS011;37565;51.352;6.412;2022-08-19T05:05:17;4.03;;;3.70;;
51485;SDS011;37565;51.352;6.412;2022-08-19T05:07:45;3.80;;;3.53;;
51485;SDS011;37565;51.352;6.412;2022-08-19T05:10:13;4.10;;;3.70;;
51485;SDS011;37565;51.352;6.412;2022-08-19T05:12:41;4.10;;;3.80;;
51485;SDS011;37565;51.352;6.412;2022-08-19T05:15:09;3.95;;;3.65;;
51485;SDS011;37565;51.352;6.412;2022-08-19T05:17:39;4.15;;;3.85;;
51485;SDS011;37565;51.352;6.412;2022-08-19T05:20:28;32.63;;;22.65;;
51485;SDS011;37565;51.352;6.412;2022-08-19T05:23:13;35.08;;;24.05;;
51485;SDS011;37565;51.352;6.412;2022-08-19T05:25:47;37.05;;;25.30;;
51485;SDS011;37565;51.352;6.412;2022-08-19T05:28:16;33.33;;;24.23;;
51485;SDS011;37565;51.352;6.412;2022-08-19T05:30:44;37.33;;;25.13;;
51485;SDS011;37565;51.352;6.412;2022-08-19T05:33:14;39.95;;;25.38;;
51485;SDS011;37565;51.352;6.412;2022-08-19T05:35:42;32.00;;;22.45;;
51485;SDS011;37565;51.352;6.412;2022-08-19T05:38:10;31.10;;;19.80;;
51485;SDS011;37565;51.352;6.412;2022-08-19T05:40:39;26.42;;;19.25;;
51485;SDS011;37565;51.352;6.412;2022-08-19T05:43:07;25.88;;;17.83;;
51485;SDS011;37565;51.352;6.412;2022-08-19T05:45:39;26.58;;;18.45;;
51485;SDS011;37565;51.352;6.412;2022-08-19T05:48:08;23.73;;;17.73;;
51485;SDS011;37565;51.352;6.412;2022-08-19T05:50:38;21.35;;;16.83;;
51485;SDS011;37565;51.352;6.412;2022-08-19T05:53:07;23.77;;;17.52;;
51485;SDS011;37565;51.352;6.412;2022-08-19T05:55:35;21.13;;;15.82;;
51485;SDS011;37565;51.352;6.412;2022-08-19T05:58:05;21.75;;;15.90;;
51485;SDS011;37565;51.352;6.412;2022-08-19T06:00:34;23.17;;;17.58;;
51485;SDS011;37565;51.352;6.412;2022-08-19T06:03:02;27.73;;;15.90;;
51485;SDS011;37565;51.352;6.412;2022-08-19T06:05:40;16.48;;;13.35;;
51485;SDS011;37565;51.352;6.412;2022-08-19T06:08:17;26.13;;;19.35;;
51485;SDS011;37565;51.352;6.412;2022-08-19T06:11:11;24.83;;;17.95;;
51485;SDS011;37565;51.352;6.412;2022-08-19T06:13:40;28.13;;;20.55;;
51485;SDS011;37565;51.352;6.412;2022-08-19T06:16:08;32.15;;;19.42;;
51485;SDS011;37565;51.352;6.412;2022-08-19T06:18:36;28.85;;;19.92;;
51485;SDS011;37565;51.352;6.412;2022-08-19T06:21:06;27.83;;;19.67;;
51485;SDS011;37565;51.352;6.412;2022-08-19T06:23:33;31.70;;;20.38;;
51485;SDS011;37565;51.352;6.412;2022-08-19T06:26:01;26.75;;;18.60;;
51485;SDS011;37565;51.352;6.412;2022-08-19T06:28:30;25.42;;;18.58;;
51485;SDS011;37565;51.352;6.412;2022-08-19T06:30:59;27.92;;;19.95;;
51485;SDS011;37565;51.352;6.412;2022-08-19T06:33:32;25.58;;;18.08;;
51485;SDS011;37565;51.352;6.412;2022-08-19T06:36:00;25.17;;;17.92;;
51485;SDS011;37565;51.352;6.412;2022-08-19T06:38:30;24.73;;;17.73;;
51485;SDS011;37565;51.352;6.412;2022-08-19T06:41:00;23.10;;;16.10;;
51485;SDS011;37565;51.352;6.412;2022-08-19T06:43:33;23.63;;;16.15;;
51485;SDS011;37565;51.352;6.412;2022-08-19T06:46:09;25.87;;;17.77;;
51485;SDS011;37565;51.352;6.412;2022-08-19T06:48:40;26.67;;;18.25;;
51485;SDS011;37565;51.352;6.412;2022-08-19T06:51:11;28.25;;;17.75;;
51485;SDS011;37565;51.352;6.412;2022-08-19T06:53:46;24.02;;;17.38;;
51485;SDS011;37565;51.352;6.412;2022-08-19T06:56:20;32.58;;;21.17;;
51485;SDS011;37565;51.352;6.412;2022-08-19T06:58:56;26.30;;;16.98;;
51485;SDS011;37565;51.352;6.412;2022-08-19T07:01:25;33.78;;;22.95;;
51485;SDS011;37565;51.352;6.412;2022-08-19T07:03:53;38.53;;;24.27;;
51485;SDS011;37565;51.352;6.412;2022-08-19T07:06:23;30.13;;;20.02;;
51485;SDS011;37565;51.352;6.412;2022-08-19T07:09:11;32.88;;;21.92;;
51485;SDS011;37565;51.352;6.412;2022-08-19T07:11:44;36.33;;;24.77;;
51485;SDS011;37565;51.352;6.412;2022-08-19T07:14:13;38.58;;;25.35;;
51485;SDS011;37565;51.352;6.412;2022-08-19T07:16:45;39.72;;;24.60;;
51485;SDS011;37565;51.352;6.412;2022-08-19T07:19:14;34.65;;;24.02;;
51485;SDS011;37565;51.352;6.412;2022-08-19T07:21:44;39.58;;;23.88;;
51485;SDS011;37565;51.352;6.412;2022-08-19T07:24:14;45.10;;;27.02;;
51485;SDS011;37565;51.352;6.412;2022-08-19T07:26:43;43.17;;;25.77;;
51485;SDS011;37565;51.352;6.412;2022-08-19T07:29:17;38.33;;;23.73;;
51485;SDS011;37565;51.352;6.412;2022-08-19T07:31:53;40.08;;;24.20;;
51485;SDS011;37565;51.352;6.412;2022-08-19T07:34:26;41.63;;;25.08;;
51485;SDS011;37565;51.352;6.412;2022-08-19T07:36:56;34.60;;;22.20;;
51485;SDS011;37565;51.352;6.412;2022-08-19T07:39:27;33.70;;;21.25;;
51485;SDS011;37565;51.352;6.412;2022-08-19T07:41:57;34.88;;;22.95;;
51485;SDS011;37565;51.352;6.412;2022-08-19T07:44:27;33.60;;;21.90;;
51485;SDS011;37565;51.352;6.412;2022-08-19T07:46:56;29.23;;;19.88;;
51485;SDS011;37565;51.352;6.412;2022-08-19T07:49:25;34.05;;;21.25;;
51485;SDS011;37565;51.352;6.412;2022-08-19T07:51:54;29.52;;;20.02;;
51485;SDS011;37565;51.352;6.412;2022-08-19T07:54:25;50.70;;;30.80;;
51485;SDS011;37565;51.352;6.412;2022-08-19T07:56:55;59.22;;;34.95;;
51485;SDS011;37565;51.352;6.412;2022-08-19T07:59:24;51.38;;;29.98;;
51485;SDS011;37565;51.352;6.412;2022-08-19T08:01:52;55.47;;;32.90;;
51485;SDS011;37565;51.352;6.412;2022-08-19T08:04:20;55.67;;;34.13;;
51485;SDS011;37565;51.352;6.412;2022-08-19T08:07:06;56.72;;;35.25;;
51485;SDS011;37565;51.352;6.412;2022-08-19T08:09:57;58.42;;;36.13;;
51485;SDS011;37565;51.352;6.412;2022-08-19T08:12:31;54.90;;;34.83;;
51485;SDS011;37565;51.352;6.412;2022-08-19T08:15:03;55.40;;;32.33;;
51485;SDS011;37565;51.352;6.412;2022-08-19T08:17:38;57.65;;;34.70;;
51485;SDS011;37565;51.352;6.412;2022-08-19T08:20:17;48.63;;;31.33;;
51485;SDS011;37565;51.352;6.412;2022-08-19T08:22:46;48.15;;;31.00;;
51485;SDS011;37565;51.352;6.412;2022-08-19T08:25:35;46.38;;;29.45;;
51485;SDS011;37565;51.352;6.412;2022-08-19T08:28:05;48.72;;;28.40;;
51485;SDS011;37565;51.352;6.412;2022-08-19T08:30:42;45.28;;;26.67;;
51485;SDS011;37565;51.352;6.412;2022-08-19T08:33:14;45.67;;;25.50;;
51485;SDS011;37565;51.352;6.412;2022-08-19T08:36:00;39.20;;;23.65;;
51485;SDS011;37565;51.352;6.412;2022-08-19T08:38:29;39.78;;;23.42;;
51485;SDS011;37565;51.352;6.412;2022-08-19T08:41:05;35.35;;;22.58;;
51485;SDS011;37565;51.352;6.412;2022-08-19T08:43:44;33.10;;;21.33;;
51485;SDS011;37565;51.352;6.412;2022-08-19T08:46:15;29.80;;;18.90;;
51485;SDS011;37565;51.352;6.412;2022-08-19T08:48:59;30.27;;;19.17;;
51485;SDS011;37565;51.352;6.412;2022-08-19T08:51:36;25.80;;;16.13;;
51485;SDS011;37565;51.352;6.412;2022-08-19T08:54:10;25.23;;;15.55;;
51485;SDS011;37565;51.352;6.412;2022-08-19T08:56:41;21.92;;;14.63;;
51485;SDS011;37565;51.352;6.412;2022-08-19T08:59:12;21.60;;;15.07;;
51485;SDS011;37565;51.352;6.412;2022-08-19T09:01:46;24.67;;;15.25;;
51485;SDS011;37565;51.352;6.412;2022-08-19T09:04:14;31.80;;;18.10;;
51485;SDS011;37565;51.352;6.412;2022-08-19T09:06:46;23.75;;;16.52;;
51485;SDS011;37565;51.352;6.412;2022-08-19T09:09:18;24.58;;;14.50;;
51485;SDS011;37565;51.352;6.412;2022-08-19T09:11:55;23.48;;;14.43;;
51485;SDS011;37565;51.352;6.412;2022-08-19T09:14:36;17.60;;;12.63;;
51485;SDS011;37565;51.352;6.412;2022-08-19T09:17:18;19.67;;;13.23;;
51485;SDS011;37565;51.352;6.412;2022-08-19T09:19:55;24.08;;;13.38;;
51485;SDS011;37565;51.352;6.412;2022-08-19T09:22:27;23.00;;;13.63;;
51485;SDS011;37565;51.352;6.412;2022-08-19T09:24:55;18.08;;;12.55;;
51485;SDS011;37565;51.352;6.412;2022-08-19T09:27:24;22.90;;;11.05;;
51485;SDS011;37565;51.352;6.412;2022-08-19T09:30:11;16.38;;;10.88;;
51485;SDS011;37565;51.352;6.412;2022-08-19T09:32:42;14.70;;;9.50;;
51485;SDS011;37565;51.352;6.412;2022-08-19T09:35:11;14.85;;;9.05;;
51485;SDS011;37565;51.352;6.412;2022-08-19T09:37:41;14.52;;;8.80;;
51485;SDS011;37565;51.352;6.412;2022-08-19T09:40:12;15.18;;;9.05;;
51485;SDS011;37565;51.352;6.412;2022-08-19T09:42:41;14.73;;;9.18;;
51485;SDS011;37565;51.352;6.412;2022-08-19T09:45:18;13.40;;;8.77;;
51485;SDS011;37565;51.352;6.412;2022-08-19T09:47:48;13.48;;;8.70;;
51485;SDS011;37565;51.352;6.412;2022-08-19T09:50:20;13.95;;;8.02;;
51485;SDS011;37565;51.352;6.412;2022-08-19T09:52:49;12.52;;;8.20;;
51485;SDS011;37565;51.352;6.412;2022-08-19T09:55:23;12.80;;;8.63;;
51485;SDS011;37565;51.352;6.412;2022-08-19T10:00:28;11.98;;;8.65;;
51485;SDS011;37565;51.352;6.412;2022-08-19T10:02:57;12.30;;;7.85;;
51485;SDS011;37565;51.352;6.412;2022-08-19T10:05:26;14.10;;;8.10;;
51485;SDS011;37565;51.352;6.412;2022-08-19T10:08:14;13.60;;;8.35;;
51485;SDS011;37565;51.352;6.412;2022-08-19T10:10:45;12.13;;;8.35;;
51485;SDS011;37565;51.352;6.412;2022-08-19T10:13:16;12.07;;;8.90;;
51485;SDS011;37565;51.352;6.412;2022-08-19T10:15:49;13.07;;;8.68;;
51485;SDS011;37565;51.352;6.412;2022-08-19T10:18:18;13.32;;;8.50;;
51485;SDS011;37565;51.352;6.412;2022-08-19T10:20:48;11.35;;;8.65;;
51485;SDS011;37565;51.352;6.412;2022-08-19T10:23:18;14.70;;;9.00;;
51485;SDS011;37565;51.352;6.412;2022-08-19T10:25:48;13.18;;;8.05;;
51485;SDS011;37565;51.352;6.412;2022-08-19T10:28:17;11.07;;;8.27;;
51485;SDS011;37565;51.352;6.412;2022-08-19T10:30:45;12.88;;;9.25;;
51485;SDS011;37565;51.352;6.412;2022-08-19T10:33:15;14.80;;;10.52;;
51485;SDS011;37565;51.352;6.412;2022-08-19T10:36:04;12.30;;;9.05;;
51485;SDS011;37565;51.352;6.412;2022-08-19T10:38:34;14.93;;;9.82;;
51485;SDS011;37565;51.352;6.412;2022-08-19T10:41:09;15.82;;;8.93;;
51485;SDS011;37565;51.352;6.412;2022-08-19T10:43:38;14.02;;;8.77;;
51485;SDS011;37565;51.352;6.412;2022-08-19T10:46:06;14.75;;;9.43;;
51485;SDS011;37565;51.352;6.412;2022-08-19T10:48:43;13.00;;;8.27;;
51485;SDS011;37565;51.352;6.412;2022-08-19T10:51:11;13.27;;;8.20;;
51485;SDS011;37565;51.352;6.412;2022-08-19T10:53:57;13.93;;;8.70;;
51485;SDS011;37565;51.352;6.412;2022-08-19T10:56:26;10.80;;;8.02;;
51485;SDS011;37565;51.352;6.412;2022-08-19T10:59:13;8.95;;;7.45;;
51485;SDS011;37565;51.352;6.412;2022-08-19T11:01:42;10.52;;;7.25;;
51485;SDS011;37565;51.352;6.412;2022-08-19T11:04:13;12.95;;;8.45;;
51485;SDS011;37565;51.352;6.412;2022-08-19T11:06:44;14.68;;;7.60;;
51485;SDS011;37565;51.352;6.412;2022-08-19T11:09:14;8.68;;;6.63;;
51485;SDS011;37565;51.352;6.412;2022-08-19T11:11:43;9.40;;;6.50;;
51485;SDS011;37565;51.352;6.412;2022-08-19T11:14:12;8.18;;;5.72;;
51485;SDS011;37565;51.352;6.412;2022-08-19T11:16:41;13.52;;;6.90;;
51485;SDS011;37565;51.352;6.412;2022-08-19T11:19:10;8.40;;;6.55;;
51485;SDS011;37565;51.352;6.412;2022-08-19T11:21:41;17.35;;;6.93;;
51485;SDS011;37565;51.352;6.412;2022-08-19T11:24:14;12.93;;;6.07;;
51485;SDS011;37565;51.352;6.412;2022-08-19T11:26:43;10.02;;;5.72;;
51485;SDS011;37565;51.352;6.412;2022-08-19T11:29:12;8.65;;;5.28;;
51485;SDS011;37565;51.352;6.412;2022-08-19T11:31:41;9.57;;;4.97;;
51485;SDS011;37565;51.352;6.412;2022-08-19T11:34:11;7.32;;;5.05;;
51485;SDS011;37565;51.352;6.412;2022-08-19T11:36:42;5.80;;;4.32;;
51485;SDS011;37565;51.352;6.412;2022-08-19T11:39:13;5.22;;;4.50;;
51485;SDS011;37565;51.352;6.412;2022-08-19T11:41:42;5.72;;;4.63;;
51485;SDS011;37565;51.352;6.412;2022-08-19T11:44:10;6.32;;;4.40;;
51485;SDS011;37565;51.352;6.412;2022-08-19T11:46:40;8.13;;;4.47;;
51485;SDS011;37565;51.352;6.412;2022-08-19T11:49:11;8.75;;;4.65;;
51485;SDS011;37565;51.352;6.412;2022-08-19T11:51:41;5.10;;;4.43;;
51485;SDS011;37565;51.352;6.412;2022-08-19T11:54:10;5.13;;;4.07;;
51485;SDS011;37565;51.352;6.412;2022-08-19T11:56:39;7.05;;;4.93;;
51485;SDS011;37565;51.352;6.412;2022-08-19T11:59:08;6.15;;;4.22;;
51485;SDS011;37565;51.352;6.412;2022-08-19T12:01:40;6.78;;;4.65;;
51485;SDS011;37565;51.352;6.412;2022-08-19T12:04:09;9.05;;;4.28;;
51485;SDS011;37565;51.352;6.412;2022-08-19T12:06:38;13.63;;;5.20;;
51485;SDS011;37565;51.352;6.412;2022-08-19T12:09:09;6.47;;;4.78;;
51485;SDS011;37565;51.352;6.412;2022-08-19T12:11:38;12.15;;;4.85;;
51485;SDS011;37565;51.352;6.412;2022-08-19T12:14:08;10.15;;;5.00;;
51485;SDS011;37565;51.352;6.412;2022-08-19T12:16:40;6.07;;;4.53;;
51485;SDS011;37565;51.352;6.412;2022-08-19T12:19:17;5.22;;;4.05;;
51485;SDS011;37565;51.352;6.412;2022-08-19T12:21:47;9.55;;;4.38;;
51485;SDS011;37565;51.352;6.412;2022-08-19T12:24:17;7.35;;;5.05;;
51485;SDS011;37565;51.352;6.412;2022-08-19T12:26:49;8.98;;;5.35;;
51485;SDS011;37565;51.352;6.412;2022-08-19T12:29:19;4.93;;;4.10;;
51485;SDS011;37565;51.352;6.412;2022-08-19T12:31:49;13.23;;;5.07;;
51485;SDS011;37565;51.352;6.412;2022-08-19T12:34:17;16.63;;;5.82;;
51485;SDS011;37565;51.352;6.412;2022-08-19T12:36:46;11.77;;;4.65;;
51485;SDS011;37565;51.352;6.412;2022-08-19T12:39:15;13.77;;;4.07;;
51485;SDS011;37565;51.352;6.412;2022-08-19T12:41:44;20.33;;;5.10;;
51485;SDS011;37565;51.352;6.412;2022-08-19T12:44:20;11.52;;;4.38;;
51485;SDS011;37565;51.352;6.412;2022-08-19T12:46:57;12.93;;;5.45;;
51485;SDS011;37565;51.352;6.412;2022-08-19T12:49:26;10.73;;;4.55;;
51485;SDS011;37565;51.352;6.412;2022-08-19T12:52:15;10.82;;;4.78;;
51485;SDS011;37565;51.352;6.412;2022-08-19T12:54:50;12.43;;;5.13;;
51485;SDS011;37565;51.352;6.412;2022-08-19T12:57:19;13.98;;;5.35;;
51485;SDS011;37565;51.352;6.412;2022-08-19T12:59:57;12.88;;;5.38;;
51485;SDS011;37565;51.352;6.412;2022-08-19T13:02:25;15.43;;;5.15;;
51485;SDS011;37565;51.352;6.412;2022-08-19T13:04:53;17.90;;;4.93;;
51485;SDS011;37565;51.352;6.412;2022-08-19T13:07:21;15.38;;;5.68;;
51485;SDS011;37565;51.352;6.412;2022-08-19T13:09:52;16.35;;;6.10;;
51485;SDS011;37565;51.352;6.412;2022-08-19T13:12:20;12.95;;;5.38;;
51485;SDS011;37565;51.352;6.412;2022-08-19T13:14:50;12.18;;;5.30;;
51485;SDS011;37565;51.352;6.412;2022-08-19T13:17:18;9.80;;;5.50;;
51485;SDS011;37565;51.352;6.412;2022-08-19T13:19:47;11.52;;;5.57;;
51485;SDS011;37565;51.352;6.412;2022-08-19T13:22:15;13.07;;;5.20;;
51485;SDS011;37565;51.352;6.412;2022-08-19T13:24:43;9.63;;;5.20;;
51485;SDS011;37565;51.352;6.412;2022-08-19T13:27:14;20.33;;;5.55;;
51485;SDS011;37565;51.352;6.412;2022-08-19T13:29:42;20.33;;;6.10;;
51485;SDS011;37565;51.352;6.412;2022-08-19T13:32:28;13.65;;;5.15;;
51485;SDS011;37565;51.352;6.412;2022-08-19T13:35:15;11.52;;;5.00;;
51485;SDS011;37565;51.352;6.412;2022-08-19T13:37:43;12.18;;;5.78;;
51485;SDS011;37565;51.352;6.412;2022-08-19T13:40:12;12.48;;;4.95;;
51485;SDS011;37565;51.352;6.412;2022-08-19T13:42:47;11.00;;;5.57;;
51485;SDS011;37565;51.352;6.412;2022-08-19T13:45:17;17.38;;;5.90;;
51485;SDS011;37565;51.352;6.412;2022-08-19T13:47:46;13.65;;;5.45;;
51485;SDS011;37565;51.352;6.412;2022-08-19T13:50:20;12.88;;;5.07;;
51485;SDS011;37565;51.352;6.412;2022-08-19T13:52:49;10.02;;;4.97;;
51485;SDS011;37565;51.352;6.412;2022-08-19T13:55:19;11.05;;;5.30;;
51485;SDS011;37565;51.352;6.412;2022-08-19T13:57:52;10.80;;;5.60;;
51485;SDS011;37565;51.352;6.412;2022-08-19T14:00:22;11.88;;;5.90;;
51485;SDS011;37565;51.352;6.412;2022-08-19T14:02:53;12.82;;;5.78;;
51485;SDS011;37565;51.352;6.412;2022-08-19T14:05:24;12.48;;;5.57;;
51485;SDS011;37565;51.352;6.412;2022-08-19T14:07:54;9.68;;;4.97;;
51485;SDS011;37565;51.352;6.412;2022-08-19T14:10:23;12.80;;;5.22;;
51485;SDS011;37565;51.352;6.412;2022-08-19T14:12:53;12.82;;;5.05;;
51485;SDS011;37565;51.352;6.412;2022-08-19T14:15:24;11.00;;;5.30;;
51485;SDS011;37565;51.352;6.412;2022-08-19T14:17:52;9.77;;;5.15;;
51485;SDS011;37565;51.352;6.412;2022-08-19T14:20:21;10.13;;;5.07;;
51485;SDS011;37565;51.352;6.412;2022-08-19T14:22:51;11.57;;;4.65;;
51485;SDS011;37565;51.352;6.412;2022-08-19T14:25:21;10.52;;;4.70;;
51485;SDS011;37565;51.352;6.412;2022-08-19T14:27:51;12.07;;;5.13;;
51485;SDS011;37565;51.352;6.412;2022-08-19T14:30:22;12.45;;;5.18;;
51485;SDS011;37565;51.352;6.412;2022-08-19T14:32:53;11.60;;;4.85;;
51485;SDS011;37565;51.352;6.412;2022-08-19T14:35:22;11.80;;;5.28;;
51485;SDS011;37565;51.352;6.412;2022-08-19T14:37:51;11.18;;;5.07;;
51485;SDS011;37565;51.352;6.412;2022-08-19T14:40:23;8.88;;;5.65;;
51485;SDS011;37565;51.352;6.412;2022-08-19T14:42:53;12.20;;;5.75;;
51485;SDS011;37565;51.352;6.412;2022-08-19T14:45:31;9.38;;;4.88;;
51485;SDS011;37565;51.352;6.412;2022-08-19T14:48:02;14.50;;;5.90;;
51485;SDS011;37565;51.352;6.412;2022-08-19T14:50:31;12.30;;;5.50;;
51485;SDS011;37565;51.352;6.412;2022-08-19T14:52:59;8.90;;;5.32;;
51485;SDS011;37565;51.352;6.412;2022-08-19T14:55:42;11.05;;;5.45;;
51485;SDS011;37565;51.352;6.412;2022-08-19T14:58:10;11.50;;;5.88;;
51485;SDS011;37565;51.352;6.412;2022-08-19T15:00:57;10.93;;;6.20;;
51485;SDS011;37565;51.352;6.412;2022-08-19T15:03:26;9.45;;;5.55;;
51485;SDS011;37565;51.352;6.412;2022-08-19T15:05:54;10.27;;;5.13;;